Time;durP1;ratioP1;P1;durP2;ratioP2;P2;SDS_P1;SDS_P2;PMS_P1;PMS_P2;Temp;Humidity;BMP_temperature;BMP_pressure;BME280_temperature;BME280_humidity;BME280_pressure;Samples;Min_cycle;Max_cycle;Signal;HPM_P1;HPM_P2
2021/09/03 00:01:06;;;;;;;33.50;23.42;;;;;;;;;;5026926;28;20068;-70
2021/09/03 00:03:33;;;;;;;33.38;24.45;;;;;;;;;;5035569;28;20425;-70
2021/09/03 00:05:59;;;;;;;38.47;25.10;;;;;;;;;;5027936;28;20057;-70
2021/09/03 00:08:26;;;;;;;40.75;25.85;;;;;;;;;;5040051;28;20034;-70
2021/09/03 00:10:52;;;;;;;44.60;27.23;;;;;;;;;;5008776;28;20053;-71
2021/09/03 00:13:18;;;;;;;38.65;23.27;;;;;;;;;;5031670;28;20095;-71
2021/09/03 00:15:44;;;;;;;39.30;25.20;;;;;;;;;;5015194;28;20135;-70
2021/09/03 00:18:10;;;;;;;42.05;27.02;;;;;;;;;;5040440;28;20033;-70
2021/09/03 00:20:36;;;;;;;36.53;25.38;;;;;;;;;;5032128;28;20045;-70
2021/09/03 00:23:03;;;;;;;43.90;26.23;;;;;;;;;;5015634;28;20490;-70
2021/09/03 00:25:29;;;;;;;35.92;24.33;;;;;;;;;;5025938;28;20041;-70
2021/09/03 00:27:55;;;;;;;42.20;25.65;;;;;;;;;;5033854;28;20100;-70
2021/09/03 00:30:21;;;;;;;41.15;24.27;;;;;;;;;;5030366;28;20411;-70
2021/09/03 00:32:47;;;;;;;41.78;24.88;;;;;;;;;;5015791;28;20134;-70
2021/09/03 00:35:13;;;;;;;40.80;25.48;;;;;;;;;;5033309;28;20033;-70
2021/09/03 00:37:39;;;;;;;39.80;25.60;;;;;;;;;;5015686;28;20044;-70
2021/09/03 00:40:07;;;;;;;37.97;23.85;;;;;;;;;;5031626;28;20037;-70
2021/09/03 00:42:33;;;;;;;37.53;24.10;;;;;;;;;;5028533;28;20032;-70
2021/09/03 00:44:59;;;;;;;37.72;24.10;;;;;;;;;;5030884;28;20424;-70
2021/09/03 00:47:25;;;;;;;36.53;23.05;;;;;;;;;;5014764;28;20413;-70
2021/09/03 00:49:51;;;;;;;34.33;22.90;;;;;;;;;;5030556;28;20050;-70
2021/09/03 00:52:17;;;;;;;34.45;22.75;;;;;;;;;;5031943;28;20149;-71
2021/09/03 00:54:44;;;;;;;36.58;22.58;;;;;;;;;;5020473;28;20268;-71
2021/09/03 00:57:10;;;;;;;32.95;21.63;;;;;;;;;;5025498;28;20041;-71
2021/09/03 00:59:36;;;;;;;32.75;21.77;;;;;;;;;;5027319;28;20065;-71
2021/09/03 01:02:03;;;;;;;35.10;23.85;;;;;;;;;;5031601;28;20037;-71
2021/09/03 01:04:29;;;;;;;35.05;23.13;;;;;;;;;;5015341;28;20075;-70
2021/09/03 01:06:55;;;;;;;34.03;21.52;;;;;;;;;;5027425;28;20118;-70
2021/09/03 01:09:21;;;;;;;30.98;21.23;;;;;;;;;;5037334;28;20033;-70
2021/09/03 01:11:47;;;;;;;35.13;22.63;;;;;;;;;;5028681;28;20052;-70
2021/09/03 01:14:13;;;;;;;30.48;22.17;;;;;;;;;;5014482;28;20057;-70
2021/09/03 01:16:39;;;;;;;29.58;20.88;;;;;;;;;;5034721;28;20073;-70
2021/09/03 01:19:06;;;;;;;29.17;20.95;;;;;;;;;;5029853;28;20033;-70
2021/09/03 01:21:33;;;;;;;31.30;21.63;;;;;;;;;;5036863;28;20044;-70
2021/09/03 01:23:59;;;;;;;33.88;22.65;;;;;;;;;;5025779;28;20384;-70
2021/09/03 01:26:26;;;;;;;34.38;21.88;;;;;;;;;;5031656;28;20045;-70
2021/09/03 01:28:52;;;;;;;35.30;22.20;;;;;;;;;;5027884;28;20046;-69
2021/09/03 01:31:18;;;;;;;32.80;22.35;;;;;;;;;;5015392;28;20144;-69
2021/09/03 01:33:44;;;;;;;32.55;21.85;;;;;;;;;;5027248;28;20043;-70
2021/09/03 01:36:10;;;;;;;30.45;20.65;;;;;;;;;;5031569;28;20037;-70
2021/09/03 01:38:37;;;;;;;32.55;21.83;;;;;;;;;;5016835;28;20065;-70
2021/09/03 01:41:03;;;;;;;32.10;21.10;;;;;;;;;;5029710;28;20063;-70
2021/09/03 01:43:29;;;;;;;28.40;20.58;;;;;;;;;;5023389;28;20512;-70
2021/09/03 01:45:55;;;;;;;31.30;21.42;;;;;;;;;;5036689;28;20041;-70
2021/09/03 01:48:21;;;;;;;35.58;21.05;;;;;;;;;;5022045;28;20037;-70
2021/09/03 01:50:48;;;;;;;30.17;21.42;;;;;;;;;;5031971;28;20045;-70
2021/09/03 01:53:14;;;;;;;32.83;20.98;;;;;;;;;;5031137;28;20057;-70
2021/09/03 01:55:40;;;;;;;33.55;21.55;;;;;;;;;;5035460;28;20556;-70
2021/09/03 01:58:06;;;;;;;31.55;20.05;;;;;;;;;;5029281;28;20398;-70
2021/09/03 02:00:32;;;;;;;31.60;20.17;;;;;;;;;;5012863;28;20049;-70
2021/09/03 02:02:58;;;;;;;28.25;19.85;;;;;;;;;;5039247;28;20547;-70
2021/09/03 02:05:24;;;;;;;30.92;20.30;;;;;;;;;;5035458;28;20400;-70
2021/09/03 02:07:50;;;;;;;25.80;19.45;;;;;;;;;;5034859;28;20041;-70
2021/09/03 02:10:16;;;;;;;26.80;20.02;;;;;;;;;;5034300;28;20432;-71
2021/09/03 02:12:42;;;;;;;24.83;18.77;;;;;;;;;;5043488;28;20489;-70
2021/09/03 02:15:09;;;;;;;23.52;18.55;;;;;;;;;;5028642;28;20172;-70
2021/09/03 02:17:35;;;;;;;26.25;18.77;;;;;;;;;;5035413;28;20039;-70
2021/09/03 02:20:01;;;;;;;27.45;19.05;;;;;;;;;;5031890;28;20033;-71
2021/09/03 02:22:27;;;;;;;26.13;19.95;;;;;;;;;;5021793;28;20494;-71
2021/09/03 02:24:53;;;;;;;26.80;19.02;;;;;;;;;;5014569;28;20267;-71
2021/09/03 02:27:19;;;;;;;27.15;19.17;;;;;;;;;;5039805;28;20087;-71
2021/09/03 02:29:45;;;;;;;35.60;20.95;;;;;;;;;;5027941;28;20052;-71
2021/09/03 02:32:13;;;;;;;27.65;19.52;;;;;;;;;;5032614;28;20151;-71
2021/09/03 02:34:40;;;;;;;27.55;19.30;;;;;;;;;;5032515;28;20041;-71
2021/09/03 02:37:06;;;;;;;29.50;17.92;;;;;;;;;;5034876;28;20595;-71
2021/09/03 02:39:32;;;;;;;34.67;21.15;;;;;;;;;;5038468;28;20381;-71
2021/09/03 02:41:58;;;;;;;27.75;19.17;;;;;;;;;;5029738;28;20457;-71
2021/09/03 02:44:24;;;;;;;28.35;18.90;;;;;;;;;;5035405;28;20080;-70
2021/09/03 02:46:50;;;;;;;30.30;18.63;;;;;;;;;;5013601;28;20106;-70
2021/09/03 02:49:16;;;;;;;25.23;17.45;;;;;;;;;;5023418;28;20048;-70
2021/09/03 02:51:42;;;;;;;29.67;19.63;;;;;;;;;;5025695;28;20412;-70
2021/09/03 02:54:08;;;;;;;24.05;17.77;;;;;;;;;;5037416;28;20045;-70
2021/09/03 02:56:34;;;;;;;28.27;18.45;;;;;;;;;;5033432;28;20067;-70
2021/09/03 02:59:00;;;;;;;24.15;17.75;;;;;;;;;;5014998;28;20041;-70
2021/09/03 03:01:26;;;;;;;22.58;17.08;;;;;;;;;;5030937;28;20303;-70
2021/09/03 03:03:52;;;;;;;23.02;16.52;;;;;;;;;;5042640;28;20037;-70
2021/09/03 03:06:18;;;;;;;24.88;16.90;;;;;;;;;;5028311;28;20045;-70
2021/09/03 03:08:44;;;;;;;24.33;18.02;;;;;;;;;;5034196;28;20128;-70
2021/09/03 03:11:10;;;;;;;24.40;17.80;;;;;;;;;;5040016;28;20049;-70
2021/09/03 03:13:36;;;;;;;24.55;17.67;;;;;;;;;;5029377;28;20045;-70
2021/09/03 03:16:02;;;;;;;22.23;16.73;;;;;;;;;;5035786;28;20056;-71
2021/09/03 03:18:29;;;;;;;23.92;16.40;;;;;;;;;;5015424;28;20053;-71
2021/09/03 03:20:55;;;;;;;25.50;17.42;;;;;;;;;;5034279;28;20095;-70
2021/09/03 03:23:21;;;;;;;24.33;16.08;;;;;;;;;;5025494;28;20040;-70
2021/09/03 03:25:47;;;;;;;21.17;16.17;;;;;;;;;;5034689;28;20037;-70
2021/09/03 03:28:14;;;;;;;25.88;17.33;;;;;;;;;;5011313;28;20124;-70
2021/09/03 03:30:40;;;;;;;21.67;15.77;;;;;;;;;;5033315;28;20046;-70
2021/09/03 03:33:06;;;;;;;23.38;16.70;;;;;;;;;;5025511;28;20052;-70
2021/09/03 03:35:32;;;;;;;23.67;16.88;;;;;;;;;;5035802;28;20072;-70
2021/09/03 03:37:58;;;;;;;20.40;15.90;;;;;;;;;;5035236;28;20065;-70
2021/09/03 03:40:24;;;;;;;20.10;15.73;;;;;;;;;;5023002;28;20041;-70
2021/09/03 03:42:50;;;;;;;26.92;16.02;;;;;;;;;;5028735;28;23052;-69
2021/09/03 03:45:16;;;;;;;23.00;16.25;;;;;;;;;;5039961;28;20052;-69
2021/09/03 03:47:42;;;;;;;21.42;16.20;;;;;;;;;;5021824;28;20045;-69
2021/09/03 03:50:09;;;;;;;24.55;17.17;;;;;;;;;;5039510;28;20120;-69
2021/09/03 03:52:35;;;;;;;26.02;16.10;;;;;;;;;;5019903;28;20048;-69
2021/09/03 03:55:01;;;;;;;23.70;16.42;;;;;;;;;;5012933;28;20045;-69
2021/09/03 03:57:27;;;;;;;22.35;16.05;;;;;;;;;;5033739;28;20049;-69
2021/09/03 03:59:53;;;;;;;22.70;16.13;;;;;;;;;;5026905;28;20103;-69
2021/09/03 04:02:19;;;;;;;23.55;17.05;;;;;;;;;;5033685;28;20068;-69
2021/09/03 04:04:45;;;;;;;26.33;16.52;;;;;;;;;;5030831;28;20501;-69
2021/09/03 04:07:11;;;;;;;23.33;16.50;;;;;;;;;;5035230;28;20536;-69
2021/09/03 04:09:37;;;;;;;25.98;18.35;;;;;;;;;;5027403;28;20067;-69
2021/09/03 04:12:04;;;;;;;27.73;17.40;;;;;;;;;;5032064;28;21049;-70
2021/09/03 04:14:30;;;;;;;28.63;18.33;;;;;;;;;;5031818;28;20040;-70
2021/09/03 04:16:56;;;;;;;23.70;16.45;;;;;;;;;;5034767;28;20041;-70
2021/09/03 04:19:22;;;;;;;23.38;16.10;;;;;;;;;;5026036;28;20485;-70
2021/09/03 04:21:48;;;;;;;22.30;15.90;;;;;;;;;;5019298;28;20085;-70
2021/09/03 04:24:14;;;;;;;20.80;15.40;;;;;;;;;;5027385;28;20053;-70
2021/09/03 04:26:40;;;;;;;21.25;15.45;;;;;;;;;;5035884;28;20041;-70
2021/09/03 04:29:06;;;;;;;23.70;15.43;;;;;;;;;;5035706;28;20398;-70
2021/09/03 04:31:32;;;;;;;24.23;15.98;;;;;;;;;;5028320;28;20704;-70
2021/09/03 04:33:58;;;;;;;24.58;16.15;;;;;;;;;;5018500;28;20083;-70
2021/09/03 04:36:24;;;;;;;19.48;14.73;;;;;;;;;;5030843;28;20029;-70
2021/09/03 04:38:50;;;;;;;22.40;16.23;;;;;;;;;;5034682;28;20045;-70
2021/09/03 04:41:17;;;;;;;137.75;113.47;;;;;;;;;;5018047;28;20045;-70
2021/09/03 04:43:43;;;;;;;180.43;143.73;;;;;;;;;;5035992;28;20035;-70
2021/09/03 04:46:09;;;;;;;29.48;20.48;;;;;;;;;;5024053;28;20098;-70
2021/09/03 04:48:35;;;;;;;25.45;17.27;;;;;;;;;;5032137;28;20037;-70
2021/09/03 04:51:01;;;;;;;25.48;17.60;;;;;;;;;;5030853;28;20595;-70
2021/09/03 04:53:27;;;;;;;27.73;17.27;;;;;;;;;;5036235;28;20532;-70
2021/09/03 04:55:53;;;;;;;28.55;17.42;;;;;;;;;;5031587;28;20045;-70
2021/09/03 04:58:20;;;;;;;24.02;15.43;;;;;;;;;;5033858;28;20512;-70
2021/09/03 05:00:46;;;;;;;27.63;18.30;;;;;;;;;;5012743;28;20052;-70
2021/09/03 05:03:12;;;;;;;29.95;18.08;;;;;;;;;;5033691;28;20040;-70
2021/09/03 05:05:38;;;;;;;28.23;17.50;;;;;;;;;;5022338;28;20041;-70
2021/09/03 05:08:08;;;;;;;30.50;17.30;;;;;;;;;;5026533;28;20434;-70
2021/09/03 05:10:34;;;;;;;30.60;18.17;;;;;;;;;;5034387;28;20565;-70
2021/09/03 05:13:00;;;;;;;25.85;16.30;;;;;;;;;;5028053;28;20393;-70
2021/09/03 05:15:32;;;;;;;21.10;15.25;;;;;;;;;;5034254;28;20151;-70
2021/09/03 05:17:58;;;;;;;26.75;16.65;;;;;;;;;;5031006;28;20138;-70
2021/09/03 05:20:24;;;;;;;30.00;16.63;;;;;;;;;;5018999;28;20047;-70
2021/09/03 05:22:50;;;;;;;27.00;16.13;;;;;;;;;;5030196;28;20477;-70
2021/09/03 05:25:16;;;;;;;20.10;14.18;;;;;;;;;;5017451;28;20507;-70
2021/09/03 05:27:42;;;;;;;22.70;15.52;;;;;;;;;;5017600;28;20046;-70
2021/09/03 05:30:09;;;;;;;22.67;16.02;;;;;;;;;;5035351;28;20049;-70
2021/09/03 05:32:36;;;;;;;24.92;15.85;;;;;;;;;;5030977;28;20041;-70
2021/09/03 05:35:02;;;;;;;25.67;15.82;;;;;;;;;;5021543;28;20053;-70
2021/09/03 05:37:28;;;;;;;26.35;16.42;;;;;;;;;;5032121;28;20048;-70
2021/09/03 05:39:54;;;;;;;21.83;14.60;;;;;;;;;;5034225;28;20049;-71
2021/09/03 05:42:20;;;;;;;25.35;15.98;;;;;;;;;;5036480;28;20540;-70
2021/09/03 05:44:46;;;;;;;25.27;17.85;;;;;;;;;;5036286;28;20060;-70
2021/09/03 05:47:12;;;;;;;33.72;21.20;;;;;;;;;;5034743;28;20089;-70
2021/09/03 05:49:38;;;;;;;36.20;21.35;;;;;;;;;;5015821;28;20045;-70
2021/09/03 05:52:05;;;;;;;37.55;21.75;;;;;;;;;;5037640;28;20758;-70
2021/09/03 05:54:31;;;;;;;39.75;21.90;;;;;;;;;;5030368;28;20046;-70
2021/09/03 05:56:58;;;;;;;40.38;21.80;;;;;;;;;;5019375;28;20046;-70
2021/09/03 05:59:24;;;;;;;39.17;21.00;;;;;;;;;;5031584;28;20049;-70
2021/09/03 06:01:50;;;;;;;34.33;19.40;;;;;;;;;;5037061;28;20478;-70
2021/09/03 06:04:16;;;;;;;34.33;20.08;;;;;;;;;;5029968;28;20049;-70
2021/09/03 06:06:42;;;;;;;30.88;21.15;;;;;;;;;;5034287;28;20117;-70
2021/09/03 06:09:08;;;;;;;34.15;21.00;;;;;;;;;;5030348;28;20052;-70
2021/09/03 06:11:34;;;;;;;27.88;20.02;;;;;;;;;;5039421;28;20489;-70
2021/09/03 06:14:00;;;;;;;32.72;21.67;;;;;;;;;;5032784;28;20127;-70
2021/09/03 06:16:26;;;;;;;31.60;20.15;;;;;;;;;;5034732;28;20057;-70
2021/09/03 06:18:52;;;;;;;34.47;22.42;;;;;;;;;;5032734;28;20536;-70
2021/09/03 06:21:18;;;;;;;30.80;20.90;;;;;;;;;;5032126;28;20095;-70
2021/09/03 06:23:44;;;;;;;30.02;20.27;;;;;;;;;;5013542;28;20041;-70
2021/09/03 06:26:10;;;;;;;30.23;20.98;;;;;;;;;;5032211;28;20057;-70
2021/09/03 06:28:37;;;;;;;33.88;19.85;;;;;;;;;;5034788;28;20092;-71
2021/09/03 06:31:03;;;;;;;29.88;20.67;;;;;;;;;;5030830;28;20107;-71
2021/09/03 06:33:29;;;;;;;32.58;21.30;;;;;;;;;;5038696;28;20568;-71
2021/09/03 06:35:55;;;;;;;34.50;21.50;;;;;;;;;;5013380;28;20049;-71
2021/09/03 06:38:21;;;;;;;33.30;20.23;;;;;;;;;;5034935;28;20626;-71
2021/09/03 06:40:47;;;;;;;31.75;21.52;;;;;;;;;;5031609;28;20091;-71
2021/09/03 06:43:13;;;;;;;32.03;20.92;;;;;;;;;;5036191;28;20042;-71
2021/09/03 06:45:39;;;;;;;30.42;19.73;;;;;;;;;;5033826;28;20044;-71
2021/09/03 06:48:05;;;;;;;28.60;19.65;;;;;;;;;;5032782;28;20421;-69
2021/09/03 06:50:31;;;;;;;33.67;20.15;;;;;;;;;;5027892;28;20136;-71
2021/09/03 06:52:57;;;;;;;24.70;20.63;;;;;;;;;;5039456;28;20473;-71
2021/09/03 06:55:24;;;;;;;30.30;20.95;;;;;;;;;;5028371;28;20033;-71
2021/09/03 06:57:50;;;;;;;25.90;18.58;;;;;;;;;;5037055;28;20180;-71
2021/09/03 07:00:16;;;;;;;29.40;20.27;;;;;;;;;;5013061;28;20077;-71
2021/09/03 07:02:42;;;;;;;25.40;17.95;;;;;;;;;;5036911;28;20072;-71
2021/09/03 07:05:10;;;;;;;25.88;17.75;;;;;;;;;;5033753;28;20048;-71
2021/09/03 07:07:36;;;;;;;28.15;18.95;;;;;;;;;;5028086;28;20417;-71
2021/09/03 07:10:02;;;;;;;27.77;19.98;;;;;;;;;;5036377;28;20472;-71
2021/09/03 07:12:28;;;;;;;27.92;18.80;;;;;;;;;;5021739;28;20053;-71
2021/09/03 07:14:54;;;;;;;24.77;17.88;;;;;;;;;;5034566;28;20128;-71
2021/09/03 07:17:20;;;;;;;30.23;19.40;;;;;;;;;;5028489;28;20103;-71
2021/09/03 07:19:47;;;;;;;25.42;17.92;;;;;;;;;;5032022;28;20057;-71
2021/09/03 07:22:13;;;;;;;23.25;17.83;;;;;;;;;;5027413;28;20034;-71
2021/09/03 07:24:39;;;;;;;24.20;16.48;;;;;;;;;;5031799;28;20053;-71
2021/09/03 07:27:05;;;;;;;28.38;18.35;;;;;;;;;;5028260;28;20063;-70
2021/09/03 07:29:31;;;;;;;24.13;17.00;;;;;;;;;;5033843;28;20045;-70
2021/09/03 07:31:57;;;;;;;22.73;17.02;;;;;;;;;;5026410;28;20085;-71
2021/09/03 07:34:23;;;;;;;21.60;16.52;;;;;;;;;;5034186;28;20053;-72
2021/09/03 07:36:49;;;;;;;21.45;15.70;;;;;;;;;;5009140;28;20056;-72
2021/09/03 07:39:19;;;;;;;23.23;16.67;;;;;;;;;;5030173;28;20052;-71
2021/09/03 07:41:46;;;;;;;21.52;15.52;;;;;;;;;;5014112;28;20042;-71
2021/09/03 07:44:12;;;;;;;18.00;14.45;;;;;;;;;;5032794;28;20121;-71
2021/09/03 07:46:39;;;;;;;24.60;15.00;;;;;;;;;;5033175;28;20053;-71
2021/09/03 07:49:06;;;;;;;20.15;13.75;;;;;;;;;;5028175;28;20102;-71
2021/09/03 07:51:32;;;;;;;20.35;12.18;;;;;;;;;;5036866;28;20049;-71
2021/09/03 07:53:58;;;;;;;19.58;11.90;;;;;;;;;;5026549;28;20122;-71
2021/09/03 07:56:24;;;;;;;23.05;13.68;;;;;;;;;;5034599;28;20053;-71
2021/09/03 07:58:50;;;;;;;16.13;11.05;;;;;;;;;;5028067;28;20045;-71
2021/09/03 08:01:16;;;;;;;23.63;11.30;;;;;;;;;;5029696;28;20042;-71
2021/09/03 08:03:42;;;;;;;20.23;11.63;;;;;;;;;;5024655;28;20494;-71
2021/09/03 08:06:08;;;;;;;16.73;10.57;;;;;;;;;;5037219;28;20559;-71
2021/09/03 08:08:34;;;;;;;17.05;9.68;;;;;;;;;;5010416;28;20127;-72
2021/09/03 08:11:01;;;;;;;15.90;9.32;;;;;;;;;;5028672;28;20191;-72
2021/09/03 08:13:27;;;;;;;12.07;7.57;;;;;;;;;;5026697;28;20048;-72
2021/09/03 08:15:53;;;;;;;14.30;7.90;;;;;;;;;;5030994;28;20049;-72
2021/09/03 08:18:19;;;;;;;16.40;8.13;;;;;;;;;;5009810;28;20044;-72
2021/09/03 08:20:46;;;;;;;15.73;8.43;;;;;;;;;;5032719;28;20152;-72
2021/09/03 08:23:12;;;;;;;16.35;7.43;;;;;;;;;;5035458;28;20044;-72
2021/09/03 08:25:39;;;;;;;13.80;7.65;;;;;;;;;;5013359;28;20593;-72
2021/09/03 08:28:05;;;;;;;14.68;7.50;;;;;;;;;;5030548;28;20065;-72
2021/09/03 08:30:32;;;;;;;14.30;8.23;;;;;;;;;;5035106;28;20464;-72
2021/09/03 08:32:58;;;;;;;16.65;7.68;;;;;;;;;;5032531;28;20083;-72
2021/09/03 08:35:24;;;;;;;14.48;7.63;;;;;;;;;;5025853;28;20060;-72
2021/09/03 08:37:51;;;;;;;14.95;7.20;;;;;;;;;;5030298;28;20167;-72
2021/09/03 08:40:17;;;;;;;14.57;8.18;;;;;;;;;;5030995;28;20056;-72
2021/09/03 08:42:43;;;;;;;14.00;7.85;;;;;;;;;;5033761;28;20107;-72
2021/09/03 08:45:11;;;;;;;13.85;7.82;;;;;;;;;;5024157;28;20048;-72
2021/09/03 08:47:39;;;;;;;15.95;8.20;;;;;;;;;;5042866;28;20071;-72
2021/09/03 08:50:05;;;;;;;15.20;8.57;;;;;;;;;;5033856;28;20545;-72
2021/09/03 08:52:31;;;;;;;14.50;8.20;;;;;;;;;;5016260;28;20045;-72
2021/09/03 08:54:57;;;;;;;14.13;8.27;;;;;;;;;;5011190;28;20049;-72
2021/09/03 08:57:23;;;;;;;14.48;8.90;;;;;;;;;;5036752;28;20082;-72
2021/09/03 08:59:49;;;;;;;17.08;8.50;;;;;;;;;;5027687;28;20049;-72
2021/09/03 09:02:18;;;;;;;14.00;8.20;;;;;;;;;;5031925;28;20033;-72
2021/09/03 09:04:45;;;;;;;13.20;7.60;;;;;;;;;;5018065;28;20046;-71
2021/09/03 09:07:12;;;;;;;13.80;8.25;;;;;;;;;;5031621;28;20072;-73
2021/09/03 09:09:47;;;;;;;14.38;8.57;;;;;;;;;;5018835;28;20077;-72
2021/09/03 09:12:14;;;;;;;12.82;7.38;;;;;;;;;;5026305;28;20136;-73
2021/09/03 09:15:03;;;;;;;12.20;7.53;;;;;;;;;;5032527;28;20049;-73
2021/09/03 09:17:30;;;;;;;10.80;7.07;;;;;;;;;;5020739;28;20060;-73
2021/09/03 09:19:56;;;;;;;12.75;7.25;;;;;;;;;;5031362;28;20244;-73
2021/09/03 09:22:23;;;;;;;14.82;7.55;;;;;;;;;;5024132;28;20042;-73
2021/09/03 09:24:49;;;;;;;14.55;7.68;;;;;;;;;;5034516;28;20117;-73
2021/09/03 09:27:27;;;;;;;14.23;7.40;;;;;;;;;;5033223;28;20592;-73
2021/09/03 09:29:54;;;;;;;10.07;6.72;;;;;;;;;;5031949;28;20128;-73
2021/09/03 09:32:27;;;;;;;13.50;7.55;;;;;;;;;;5027536;28;20107;-73
2021/09/03 09:34:56;;;;;;;13.63;6.97;;;;;;;;;;5035067;28;20057;-73
2021/09/03 09:37:22;;;;;;;12.88;7.15;;;;;;;;;;5023721;28;20046;-72
2021/09/03 09:39:52;;;;;;;14.13;7.47;;;;;;;;;;5033906;28;20049;-72
2021/09/03 09:42:20;;;;;;;13.32;7.75;;;;;;;;;;5027671;28;20102;-72
2021/09/03 09:44:46;;;;;;;13.50;6.88;;;;;;;;;;5033473;28;20068;-72
2021/09/03 09:47:12;;;;;;;13.63;6.88;;;;;;;;;;5027931;28;20185;-72
2021/09/03 09:49:39;;;;;;;16.38;7.40;;;;;;;;;;5032493;28;20056;-73
2021/09/03 09:52:05;;;;;;;10.90;6.95;;;;;;;;;;5025985;28;20064;-73
2021/09/03 09:54:31;;;;;;;13.25;6.85;;;;;;;;;;5030712;28;20053;-73
2021/09/03 09:56:59;;;;;;;14.38;6.53;;;;;;;;;;5029408;28;20046;-73
2021/09/03 09:59:26;;;;;;;11.85;6.72;;;;;;;;;;5033744;28;20410;-73
2021/09/03 10:01:54;;;;;;;12.73;6.50;;;;;;;;;;5040067;28;20079;-73
2021/09/03 10:04:21;;;;;;;14.13;6.28;;;;;;;;;;5028368;28;20046;-73
2021/09/03 10:06:48;;;;;;;13.27;6.00;;;;;;;;;;5032325;28;20448;-73
2021/09/03 10:09:18;;;;;;;11.98;6.22;;;;;;;;;;5029598;28;20053;-73
2021/09/03 10:11:46;;;;;;;13.10;6.85;;;;;;;;;;5030563;28;20053;-72
2021/09/03 10:14:16;;;;;;;12.05;5.78;;;;;;;;;;5025286;28;20448;-72
2021/09/03 10:16:42;;;;;;;11.02;6.28;;;;;;;;;;5032857;28;20136;-72
2021/09/03 10:19:09;;;;;;;11.80;7.00;;;;;;;;;;5012212;28;20390;-73
2021/09/03 10:21:40;;;;;;;11.25;6.22;;;;;;;;;;5031077;28;20449;-73
2021/09/03 10:24:07;;;;;;;12.75;6.85;;;;;;;;;;5013514;28;20398;-74
2021/09/03 10:26:35;;;;;;;11.95;6.05;;;;;;;;;;5036265;28;20080;-73
2021/09/03 10:29:12;;;;;;;12.57;6.43;;;;;;;;;;5031985;28;20144;-73
2021/09/03 10:32:01;;;;;;;16.00;7.18;;;;;;;;;;5043577;28;20532;-73
2021/09/03 10:34:43;;;;;;;14.00;7.00;;;;;;;;;;5028443;28;20045;-73
2021/09/03 10:37:18;;;;;;;14.70;8.05;;;;;;;;;;5016876;28;20049;-73
2021/09/03 10:39:47;;;;;;;14.40;7.40;;;;;;;;;;5028656;28;20045;-73
2021/09/03 10:42:32;;;;;;;14.30;7.43;;;;;;;;;;5036449;28;20065;-73
2021/09/03 10:45:09;;;;;;;15.25;8.10;;;;;;;;;;5031720;28;20198;-73
2021/09/03 10:47:44;;;;;;;14.82;7.47;;;;;;;;;;5035569;28;20558;-73
2021/09/03 10:50:10;;;;;;;14.70;7.70;;;;;;;;;;5029939;28;20049;-72
2021/09/03 10:52:37;;;;;;;13.82;7.80;;;;;;;;;;5038997;28;20154;-73
2021/09/03 10:55:07;;;;;;;14.02;8.13;;;;;;;;;;5031413;28;20140;-72
2021/09/03 10:57:53;;;;;;;11.60;7.30;;;;;;;;;;5020709;28;20484;-72
2021/09/03 11:00:19;;;;;;;17.10;7.28;;;;;;;;;;5029876;28;20046;-72
2021/09/03 11:02:45;;;;;;;14.68;7.10;;;;;;;;;;5033771;28;20134;-72
2021/09/03 11:05:12;;;;;;;13.55;7.35;;;;;;;;;;5030948;28;20056;-73
2021/09/03 11:07:45;;;;;;;15.13;7.50;;;;;;;;;;5035464;28;20048;-73
2021/09/03 11:10:18;;;;;;;13.02;6.70;;;;;;;;;;5029774;28;20546;-73
2021/09/03 11:12:51;;;;;;;12.05;6.45;;;;;;;;;;5033625;28;20049;-73
2021/09/03 11:15:17;;;;;;;13.50;7.03;;;;;;;;;;5033381;28;20167;-73
2021/09/03 11:17:44;;;;;;;13.18;6.78;;;;;;;;;;5034475;28;20052;-73
2021/09/03 11:20:10;;;;;;;13.23;7.30;;;;;;;;;;5031454;28;20041;-73
2021/09/03 11:22:37;;;;;;;12.55;7.75;;;;;;;;;;5031247;28;20049;-73
2021/09/03 11:25:04;;;;;;;15.82;7.25;;;;;;;;;;5033087;28;20188;-73
2021/09/03 11:27:31;;;;;;;14.35;7.43;;;;;;;;;;5010792;28;20084;-73
2021/09/03 11:30:01;;;;;;;13.30;7.03;;;;;;;;;;5034762;28;20067;-73
2021/09/03 11:32:28;;;;;;;13.20;7.50;;;;;;;;;;5035819;28;20401;-73
2021/09/03 11:35:13;;;;;;;11.60;7.15;;;;;;;;;;5032545;28;20480;-73
2021/09/03 11:37:46;;;;;;;17.25;8.25;;;;;;;;;;5029300;28;20140;-73
2021/09/03 11:40:20;;;;;;;14.30;8.23;;;;;;;;;;5032795;28;20133;-73
2021/09/03 11:42:50;;;;;;;12.82;7.45;;;;;;;;;;5029042;28;20089;-73
2021/09/03 11:45:17;;;;;;;14.32;7.90;;;;;;;;;;5032176;28;20053;-73
2021/09/03 11:47:47;;;;;;;12.65;7.70;;;;;;;;;;5024080;28;20061;-73
2021/09/03 11:50:15;;;;;;;13.70;7.35;;;;;;;;;;5033227;28;20045;-73
2021/09/03 11:52:42;;;;;;;13.57;8.00;;;;;;;;;;5009750;28;20494;-72
2021/09/03 11:55:13;;;;;;;12.60;7.72;;;;;;;;;;5034341;28;20522;-72
2021/09/03 11:57:53;;;;;;;15.68;9.07;;;;;;;;;;5023828;28;20405;-72
2021/09/03 12:00:26;;;;;;;16.73;8.98;;;;;;;;;;5035983;28;20045;-72
2021/09/03 12:02:53;;;;;;;15.45;8.88;;;;;;;;;;5033403;28;20466;-72
2021/09/03 12:05:20;;;;;;;15.05;8.07;;;;;;;;;;5033871;28;20061;-72
2021/09/03 12:08:02;;;;;;;14.15;8.43;;;;;;;;;;5024585;28;20058;-72
2021/09/03 12:10:36;;;;;;;15.77;9.25;;;;;;;;;;5038885;28;20049;-72
2021/09/03 12:13:09;;;;;;;14.77;8.82;;;;;;;;;;5029192;28;20071;-71
2021/09/03 12:15:35;;;;;;;16.08;9.32;;;;;;;;;;5036995;28;20596;-71
2021/09/03 12:18:02;;;;;;;16.25;9.20;;;;;;;;;;5017306;28;20057;-71
2021/09/03 12:20:31;;;;;;;16.25;8.50;;;;;;;;;;5034905;28;20100;-71
2021/09/03 12:22:57;;;;;;;12.80;9.25;;;;;;;;;;5037178;28;20045;-71
2021/09/03 12:25:30;;;;;;;13.68;8.60;;;;;;;;;;5041638;28;20057;-71
2021/09/03 12:28:06;;;;;;;15.40;9.68;;;;;;;;;;5018627;28;20068;-70
2021/09/03 12:30:32;;;;;;;14.65;9.93;;;;;;;;;;5043581;28;20513;-71
2021/09/03 12:33:22;;;;;;;13.48;8.88;;;;;;;;;;5020928;28;20470;-71
2021/09/03 12:35:49;;;;;;;14.25;9.25;;;;;;;;;;5012716;28;20136;-71
2021/09/03 12:38:15;;;;;;;13.10;8.57;;;;;;;;;;5032028;28;20073;-71
2021/09/03 12:40:41;;;;;;;13.70;9.18;;;;;;;;;;5032400;28;20124;-72
2021/09/03 12:43:14;;;;;;;16.52;9.57;;;;;;;;;;5015917;28;20101;-72
2021/09/03 12:45:45;;;;;;;15.25;9.00;;;;;;;;;;5023732;28;20151;-72
2021/09/03 12:48:11;;;;;;;16.30;8.63;;;;;;;;;;5021770;28;20130;-72
2021/09/03 12:50:37;;;;;;;12.90;9.32;;;;;;;;;;5016182;28;20041;-72
2021/09/03 12:53:03;;;;;;;11.73;9.02;;;;;;;;;;5018726;28;20106;-72
2021/09/03 12:55:30;;;;;;;15.82;9.90;;;;;;;;;;5027538;28;20421;-72
2021/09/03 12:57:56;;;;;;;13.07;8.90;;;;;;;;;;5031559;28;20528;-68
2021/09/03 13:00:22;;;;;;;13.23;8.82;;;;;;;;;;5028662;28;20041;-68
2021/09/03 13:02:48;;;;;;;15.98;9.43;;;;;;;;;;5037299;28;20071;-68
2021/09/03 13:05:14;;;;;;;13.77;9.75;;;;;;;;;;5029704;28;20053;-68
2021/09/03 13:07:40;;;;;;;14.27;9.57;;;;;;;;;;5033673;28;20049;-69
2021/09/03 13:10:06;;;;;;;11.90;7.90;;;;;;;;;;5032812;28;20370;-69
2021/09/03 13:12:32;;;;;;;12.40;8.65;;;;;;;;;;5034823;28;20037;-69
2021/09/03 13:14:58;;;;;;;12.05;8.77;;;;;;;;;;5024563;28;20151;-69
2021/09/03 13:17:24;;;;;;;13.27;8.80;;;;;;;;;;5034911;28;20080;-69
2021/09/03 13:19:50;;;;;;;12.85;8.65;;;;;;;;;;5027885;28;20087;-69
2021/09/03 13:22:16;;;;;;;12.60;9.45;;;;;;;;;;5030540;28;20041;-69
2021/09/03 13:24:43;;;;;;;11.38;7.85;;;;;;;;;;5032412;28;20092;-70
2021/09/03 13:27:09;;;;;;;12.32;7.88;;;;;;;;;;5033203;28;20045;-69
2021/09/03 13:29:35;;;;;;;11.90;8.32;;;;;;;;;;5033336;28;20042;-69
2021/09/03 13:32:01;;;;;;;12.23;8.10;;;;;;;;;;5029796;28;20034;-70
2021/09/03 13:34:29;;;;;;;11.93;9.00;;;;;;;;;;5033688;28;20043;-70
2021/09/03 13:36:55;;;;;;;12.20;9.02;;;;;;;;;;5032004;28;20560;-69
2021/09/03 13:39:21;;;;;;;13.05;8.95;;;;;;;;;;5031659;28;20124;-69
2021/09/03 13:41:47;;;;;;;13.20;8.85;;;;;;;;;;5029997;28;20053;-69
2021/09/03 13:44:13;;;;;;;12.60;8.15;;;;;;;;;;5030796;28;20072;-70
2021/09/03 13:46:39;;;;;;;10.30;8.23;;;;;;;;;;5027514;28;20056;-70
2021/09/03 13:49:07;;;;;;;13.30;7.97;;;;;;;;;;5030659;28;20041;-70
2021/09/03 13:51:33;;;;;;;10.40;7.53;;;;;;;;;;5029086;28;20381;-70
2021/09/03 13:53:59;;;;;;;13.57;8.48;;;;;;;;;;5037061;28;20209;-70
2021/09/03 13:56:26;;;;;;;12.05;8.15;;;;;;;;;;5033137;28;20048;-70
2021/09/03 13:58:52;;;;;;;12.45;7.43;;;;;;;;;;5036114;28;20037;-70
2021/09/03 14:01:18;;;;;;;10.20;7.50;;;;;;;;;;5039555;28;20124;-70
2021/09/03 14:03:44;;;;;;;12.57;8.45;;;;;;;;;;5035201;28;20389;-70
2021/09/03 14:06:11;;;;;;;12.50;8.77;;;;;;;;;;5034811;28;20040;-70
2021/09/03 14:08:38;;;;;;;10.90;8.80;;;;;;;;;;5039929;28;20055;-70
2021/09/03 14:11:04;;;;;;;12.25;8.63;;;;;;;;;;5034598;28;20061;-70
2021/09/03 14:13:30;;;;;;;10.60;8.90;;;;;;;;;;5030927;28;20045;-69
2021/09/03 14:15:56;;;;;;;12.00;8.23;;;;;;;;;;5035042;28;20060;-69
2021/09/03 14:18:22;;;;;;;11.13;8.02;;;;;;;;;;5033883;28;20067;-69
2021/09/03 14:20:48;;;;;;;13.77;8.68;;;;;;;;;;5034288;28;20050;-69
2021/09/03 14:23:15;;;;;;;13.65;9.45;;;;;;;;;;5026167;28;20041;-69